Time;durP1;ratioP1;P1;durP2;ratioP2;P2;SDS_P1;SDS_P2;PMS_P1;PMS_P2;Temp;Humidity;BMP_temperature;BMP_pressure;BME280_temperature;BME280_humidity;BME280_pressure;Samples;Min_cycle;Max_cycle;Signal;HPM_P1;HPM_P2
2023/06/17 00:00:57;;;;;;;7.60;4.50;;;;;;;20.38;54.00;99798.18;110264;1276;137957;-73
2023/06/17 00:03:24;;;;;;;6.10;3.80;;;;;;;20.40;53.70;99795.33;110296;1275;22357;-73
2023/06/17 00:05:52;;;;;;;7.60;3.50;;;;;;;20.40;54.21;99796.63;110277;1270;138678;-74
2023/06/17 00:08:20;;;;;;;4.40;3.40;;;;;;;20.39;54.13;99794.89;110266;1269;137876;-73
2023/06/17 00:10:47;;;;;;;4.10;3.50;;;;;;;20.32;55.49;99778.84;110118;1270;22237;-70
2023/06/17 00:13:21;;;;;;;3.70;3.40;;;;;;;20.29;55.19;99780.02;110224;1276;137838;-73
2023/06/17 00:15:50;;;;;;;4.40;4.20;;;;;;;20.34;57.45;99789.77;110377;1270;22267;-73
2023/06/17 00:18:19;;;;;;;4.00;3.70;;;;;;;20.24;60.74;99791.48;110089;1276;138467;-71
2023/06/17 00:20:48;;;;;;;3.60;3.30;;;;;;;20.09;61.82;99794.48;110239;1273;137981;-71
2023/06/17 00:23:15;;;;;;;3.90;3.50;;;;;;;19.97;60.74;99793.92;110297;1273;22216;-74
2023/06/17 00:25:43;;;;;;;6.60;3.90;;;;;;;19.92;60.61;99790.61;110268;1269;137431;-72
2023/06/17 00:28:10;;;;;;;4.70;4.00;;;;;;;19.85;60.26;99789.23;110009;1272;137961;-73
2023/06/17 00:30:37;;;;;;;4.30;3.90;;;;;;;19.78;62.89;99790.43;110337;1275;22336;-72
2023/06/17 00:33:05;;;;;;;4.90;3.70;;;;;;;19.70;66.02;99786.36;110160;1257;137830;-74
2023/06/17 00:35:35;;;;;;;5.00;3.40;;;;;;;19.63;67.25;99786.59;110347;1269;22210;-74
2023/06/17 00:38:03;;;;;;;3.70;3.50;;;;;;;19.57;69.29;99783.64;110275;1276;138772;-73
2023/06/17 00:40:32;;;;;;;5.80;4.70;;;;;;;19.56;70.49;99788.33;110092;1275;138023;-75
2023/06/17 00:42:59;;;;;;;6.10;5.30;;;;;;;19.50;69.82;99788.30;110346;1270;22253;-73
2023/06/17 00:45:26;;;;;;;6.50;5.90;;;;;;;19.32;69.96;99787.20;110082;1269;137560;-72
2023/06/17 00:47:54;;;;;;;5.70;5.10;;;;;;;19.05;70.98;99784.30;110310;1271;22225;-73
2023/06/17 00:50:22;;;;;;;5.10;4.70;;;;;;;18.91;71.26;99783.84;110190;1271;138263;-72
2023/06/17 00:52:53;;;;;;;5.00;4.60;;;;;;;18.95;72.24;99793.18;110042;1270;138085;-72
2023/06/17 00:55:20;;;;;;;3.60;3.40;;;;;;;18.93;72.71;99789.27;110230;1273;22362;-76
2023/06/17 00:57:48;;;;;;;7.80;5.20;;;;;;;18.89;73.20;99793.39;110132;1276;138018;-73
2023/06/17 01:00:16;;;;;;;5.20;4.70;;;;;;;18.85;73.53;99792.13;110109;1268;138919;-72
2023/06/17 01:02:44;;;;;;;4.70;4.30;;;;;;;18.82;73.77;99789.94;110385;1265;23131;-76
2023/06/17 01:05:17;;;;;;;5.30;4.90;;;;;;;18.78;74.62;99792.15;110219;1273;139417;-73
2023/06/17 01:07:46;;;;;;;5.00;4.70;;;;;;;18.69;75.42;99786.06;110436;1270;22205;-74
2023/06/17 01:10:21;;;;;;;5.10;4.60;;;;;;;18.66;75.20;99783.06;110058;1272;139586;-73
2023/06/17 01:12:51;;;;;;;5.50;5.10;;;;;;;18.70;75.87;99788.77;110130;1275;137916;-73
2023/06/17 01:15:19;;;;;;;6.00;4.50;;;;;;;18.67;75.75;99789.34;110290;1276;22342;-72
2023/06/17 01:17:54;;;;;;;5.90;4.40;;;;;;;18.63;77.29;99791.79;110180;1272;139273;-68
2023/06/17 01:20:22;;;;;;;5.30;5.00;;;;;;;18.61;78.37;99794.95;110304;1276;138512;-72
2023/06/17 01:22:52;;;;;;;5.30;4.70;;;;;;;18.59;77.88;99796.42;110410;1268;22091;-74
2023/06/17 01:25:20;;;;;;;4.30;4.00;;;;;;;18.57;79.80;99793.67;110315;1257;139629;-74
2023/06/17 01:27:49;;;;;;;3.90;3.40;;;;;;;18.60;83.36;99792.89;110304;1273;22243;-72
2023/06/17 01:30:16;;;;;;;5.40;4.90;;;;;;;18.74;83.42;99794.10;110286;1270;139140;-74
2023/06/17 01:32:44;;;;;;;6.80;5.80;;;;;;;18.81;80.35;99793.59;110092;1272;138233;-74
2023/06/17 01:35:15;;;;;;;5.40;4.90;;;;;;;18.71;79.36;99791.64;110322;1269;22176;-73
2023/06/17 01:37:49;;;;;;;5.10;4.80;;;;;;;18.51;79.44;99782.58;110369;1276;137556;-73
2023/06/17 01:40:20;;;;;;;5.30;4.50;;;;;;;18.35;80.14;99781.08;110147;1272;139192;-73
2023/06/17 01:42:51;;;;;;;5.90;5.30;;;;;;;18.27;81.00;99788.92;110282;1257;23081;-73
2023/06/17 01:45:19;;;;;;;6.40;5.10;;;;;;;18.14;81.65;99796.10;110107;1268;137319;-73
2023/06/17 01:47:47;;;;;;;6.00;5.50;;;;;;;18.03;81.95;99795.00;110200;1275;22824;-73
2023/06/17 01:50:19;;;;;;;5.50;5.10;;;;;;;17.98;81.84;99798.17;110011;1259;138490;-73
2023/06/17 01:52:47;;;;;;;5.20;4.70;;;;;;;17.96;82.55;99798.36;110075;1269;138556;-67
2023/06/17 01:55:17;;;;;;;5.80;5.10;;;;;;;17.93;83.28;99798.98;110284;1270;22761;-73
2023/06/17 01:57:45;;;;;;;5.70;5.10;;;;;;;17.83;83.58;99788.27;110081;1269;138410;-74
2023/06/17 02:00:13;;;;;;;5.90;5.40;;;;;;;17.86;83.99;99797.04;110166;1270;140079;-74
2023/06/17 02:02:51;;;;;;;7.50;5.40;;;;;;;17.81;84.20;99798.09;110393;1276;22328;-73
2023/06/17 02:05:19;;;;;;;5.60;5.10;;;;;;;17.79;84.79;99797.35;110167;1270;139933;-74
2023/06/17 02:07:47;;;;;;;6.40;5.20;;;;;;;17.77;85.36;99795.81;110275;1276;22236;-71
2023/06/17 02:10:15;;;;;;;5.00;4.60;;;;;;;17.75;85.74;99796.01;110358;1273;138599;-75
2023/06/17 02:12:42;;;;;;;6.10;5.60;;;;;;;17.73;86.12;99793.65;110355;1260;138931;-74
2023/06/17 02:15:10;;;;;;;7.60;5.20;;;;;;;17.71;86.27;99792.66;110355;1276;22227;-74
2023/06/17 02:17:37;;;;;;;7.90;5.70;;;;;;;17.70;86.85;99794.60;110293;1276;138885;-73
2023/06/17 02:20:06;;;;;;;5.60;5.20;;;;;;;17.78;87.54;99793.94;110229;1275;137728;-75
2023/06/17 02:22:33;;;;;;;6.20;5.60;;;;;;;17.95;87.51;99796.52;110422;1276;22866;-74
2023/06/17 02:25:02;;;;;;;6.70;6.10;;;;;;;18.18;86.88;99801.38;110325;1270;137471;-77
2023/06/17 02:27:29;;;;;;;7.70;6.20;;;;;;;18.42;84.96;99792.31;110416;1270;22329;-76
2023/06/17 02:29:56;;;;;;;6.00;5.50;;;;;;;18.88;83.05;99802.45;110261;1269;138168;-75
2023/06/17 02:32:24;;;;;;;9.40;5.30;;;;;;;19.29;81.66;99800.79;110162;1275;138259;-75
2023/06/17 02:34:54;;;;;;;7.90;6.70;;;;;;;19.67;79.72;99799.48;110229;1271;22214;-76
2023/06/17 02:37:21;;;;;;;11.70;5.70;;;;;;;20.05;76.99;99800.40;110250;1276;138812;-77
2023/06/17 02:39:48;;;;;;;7.70;6.20;;;;;;;20.44;75.58;99797.61;110299;1273;22108;-75
2023/06/17 02:42:16;;;;;;;6.60;6.00;;;;;;;20.83;73.56;99799.86;110183;1263;138419;-77
2023/06/17 02:44:43;;;;;;;5.20;4.80;;;;;;;21.25;71.83;99796.95;110317;1275;139577;-76
2023/06/17 02:47:10;;;;;;;5.90;4.90;;;;;;;21.58;70.12;99797.20;110248;1276;22218;-76
2023/06/17 02:49:38;;;;;;;6.30;5.10;;;;;;;21.86;68.32;99796.10;110291;1276;138511;-77
2023/06/17 02:52:06;;;;;;;6.40;5.00;;;;;;;22.16;65.38;99800.01;110327;1276;137719;-75
2023/06/17 02:54:33;;;;;;;5.20;4.80;;;;;;;22.53;64.57;99799.91;110295;1269;22257;-76
2023/06/17 02:57:02;;;;;;;10.90;7.60;;;;;;;22.88;63.05;99803.02;110116;1270;137765;-76
2023/06/17 02:59:31;;;;;;;6.90;4.80;;;;;;;23.27;60.64;99802.02;110268;1276;22396;-77
2023/06/17 03:01:58;;;;;;;5.60;5.10;;;;;;;23.73;59.24;99802.34;110283;1270;137730;-76
2023/06/17 03:04:34;;;;;;;7.40;5.40;;;;;;;24.13;57.20;99798.35;110147;1275;138555;-75
2023/06/17 03:07:03;;;;;;;4.30;3.90;;;;;;;24.48;56.44;99797.57;110235;1272;22117;-74
2023/06/17 03:09:32;;;;;;;5.70;5.00;;;;;;;24.82;55.14;99797.69;110100;1276;137765;-74
2023/06/17 03:12:00;;;;;;;6.50;5.90;;;;;;;25.11;54.01;99799.90;110232;1259;22332;-75
2023/06/17 03:14:29;;;;;;;6.80;5.90;;;;;;;25.36;52.97;99801.02;110183;1259;23094;-76
2023/06/17 03:16:58;;;;;;;7.10;5.10;;;;;;;25.63;52.05;99799.83;110074;1270;138080;-77
2023/06/17 03:19:27;;;;;;;8.60;6.50;;;;;;;25.94;50.80;99803.38;110182;1276;22214;-76
2023/06/17 03:21:55;;;;;;;6.90;5.60;;;;;;;26.24;49.51;99796.16;110026;1270;137596;-76
2023/06/17 03:24:25;;;;;;;7.50;6.90;;;;;;;26.55;48.90;99797.29;110007;1273;138467;-78
2023/06/17 03:26:53;;;;;;;10.40;9.30;;;;;;;26.84;46.08;99799.27;110236;1270;22727;-77
2023/06/17 03:29:21;;;;;;;9.80;8.80;;;;;;;27.10;43.48;99798.83;110159;1272;139972;-76
2023/06/17 03:31:51;;;;;;;10.00;9.20;;;;;;;27.36;41.51;99798.52;110246;1273;22180;-78
2023/06/17 03:34:19;;;;;;;10.30;9.30;;;;;;;27.51;40.73;99804.76;110184;1259;139038;-77
2023/06/17 03:36:47;;;;;;;10.70;8.70;;;;;;;27.60;40.63;99803.77;110103;1273;137961;-69
2023/06/17 03:39:15;;;;;;;8.80;7.70;;;;;;;27.70;40.04;99806.09;110361;1259;23904;-73
2023/06/17 03:41:43;;;;;;;9.20;8.30;;;;;;;27.81;39.75;99806.20;110295;1269;137485;-74
2023/06/17 03:44:10;;;;;;;10.80;9.90;;;;;;;27.91;39.44;99803.85;110076;1275;137921;-77
2023/06/17 03:46:38;;;;;;;12.80;8.00;;;;;;;28.11;38.85;99802.57;110495;1260;22357;-76
2023/06/17 03:49:05;;;;;;;10.60;8.00;;;;;;;28.36;37.82;99801.65;110271;1269;136951;-77
2023/06/17 03:51:33;;;;;;;8.30;7.60;;;;;;;28.39;38.16;99799.05;110273;1259;22374;-75
2023/06/17 03:54:02;;;;;;;8.00;7.30;;;;;;;28.49;37.22;99797.06;110196;1275;138199;-77
2023/06/17 03:56:32;;;;;;;8.60;7.90;;;;;;;28.58;37.18;99801.28;110308;1275;139623;-75
2023/06/17 03:59:00;;;;;;;8.50;7.70;;;;;;;28.81;37.11;99801.84;110275;1272;22399;-75
2023/06/17 04:01:28;;;;;;;8.50;7.70;;;;;;;29.10;36.74;99802.33;110095;1269;138525;-74
2023/06/17 04:03:55;;;;;;;6.00;5.50;;;;;;;29.34;36.02;99801.96;110319;1260;22516;-75
2023/06/17 04:06:22;;;;;;;7.70;6.20;;;;;;;29.57;35.33;99799.52;110242;1269;139551;-75
2023/06/17 04:10:18;;;;;;;7.60;5.00;;;;;;;29.76;34.42;99799.06;103114;1304;545036;-79
2023/06/17 04:12:46;;;;;;;6.50;5.70;;;;;;;29.80;34.56;99798.40;105616;1289;139671;-75
2023/06/17 04:15:14;;;;;;;6.00;5.20;;;;;;;29.88;34.81;99796.50;108934;1285;23094;-77
2023/06/17 04:17:41;;;;;;;4.60;4.40;;;;;;;30.01;34.57;99794.83;109043;1287;137369;-77
2023/06/17 04:20:12;;;;;;;4.20;3.90;;;;;;;30.20;34.18;99797.52;108920;1285;138948;-74
2023/06/17 04:22:41;;;;;;;8.50;4.30;;;;;;;30.10;33.83;99796.59;109060;1285;22354;-77
2023/06/17 04:25:12;;;;;;;5.50;4.00;;;;;;;29.81;34.44;99795.23;109071;1283;176098;-79
2023/06/17 04:27:44;;;;;;;4.00;3.70;;;;;;;29.83;33.90;99794.21;109350;1275;22349;-77
2023/06/17 04:30:15;;;;;;;3.80;3.50;;;;;;;29.94;33.73;99793.98;109281;1272;138483;-76
2023/06/17 04:32:43;;;;;;;4.80;3.40;;;;;;;30.15;33.72;99796.29;109138;1285;137493;-77
2023/06/17 04:35:12;;;;;;;4.00;3.70;;;;;;;30.38;33.31;99798.45;109244;1283;22331;-78
2023/06/17 04:37:44;;;;;;;3.80;3.60;;;;;;;30.41;33.08;99803.45;109186;1288;136914;-78
2023/06/17 04:40:12;;;;;;;6.00;3.40;;;;;;;30.29;32.80;99804.64;109524;1279;137455;-76
2023/06/17 04:42:44;;;;;;;3.50;3.30;;;;;;;30.26;32.95;99803.20;109979;1266;22329;-79
2023/06/17 04:45:12;;;;;;;3.00;2.70;;;;;;;30.33;32.87;99798.96;109801;1276;138281;-77
2023/06/17 04:47:39;;;;;;;3.30;2.90;;;;;;;30.49;32.80;99801.06;109983;1277;22415;-79
2023/06/17 04:50:07;;;;;;;2.90;2.70;;;;;;;30.61;32.57;99800.45;109958;1271;139972;-75
2023/06/17 04:52:35;;;;;;;5.10;2.50;;;;;;;30.74;31.84;99804.60;109881;1271;138329;-79
2023/06/17 04:55:04;;;;;;;4.30;2.40;;;;;;;30.77;31.40;99799.92;109941;1275;22113;-80
2023/06/17 04:57:32;;;;;;;3.80;2.80;;;;;;;30.74;31.85;99803.52;109763;1276;139153;-77
2023/06/17 05:00:00;;;;;;;2.50;2.20;;;;;;;30.57;32.03;99801.16;109955;1263;22229;-74
2023/06/17 05:02:28;;;;;;;4.10;2.90;;;;;;;30.39;32.95;99799.39;109839;1274;137267;-76
2023/06/17 05:04:55;;;;;;;3.30;3.10;;;;;;;30.47;33.14;99804.92;109790;1276;137309;-80
2023/06/17 05:07:24;;;;;;;3.70;2.80;;;;;;;30.60;32.79;99802.30;109907;1277;22347;-74
2023/06/17 05:09:52;;;;;;;2.80;2.60;;;;;;;30.72;32.20;99803.36;109815;1273;136965;-83
2023/06/17 05:12:19;;;;;;;3.20;2.90;;;;;;;30.78;31.66;99804.52;109781;1276;137260;-79
2023/06/17 05:14:46;;;;;;;5.70;2.60;;;;;;;30.85;31.78;99804.13;109881;1266;22330;-76
2023/06/17 05:17:14;;;;;;;2.40;2.30;;;;;;;30.95;31.49;99807.10;109785;1264;139370;-83
2023/06/17 05:19:41;;;;;;;7.80;2.70;;;;;;;31.03;31.53;99807.25;109950;1274;23034;-79
2023/06/17 05:22:09;;;;;;;2.40;2.20;;;;;;;31.04;31.41;99808.16;109744;1279;137206;-79
2023/06/17 05:24:36;;;;;;;3.90;2.50;;;;;;;30.96;31.90;99805.91;109844;1276;139588;-80
2023/06/17 05:27:04;;;;;;;3.50;2.20;;;;;;;30.87;31.81;99809.09;109889;1274;22373;-74
2023/06/17 05:29:32;;;;;;;2.20;2.10;;;;;;;30.73;31.75;99814.14;109769;1273;138565;-78
2023/06/17 05:32:00;;;;;;;5.90;2.90;;;;;;;30.53;32.10;99819.15;109789;1276;22337;-79
2023/06/17 05:34:27;;;;;;;6.10;2.90;;;;;;;30.42;32.62;99818.52;109778;1273;136800;-76
2023/06/17 05:36:55;;;;;;;3.10;2.70;;;;;;;30.39;32.80;99820.29;109818;1273;137506;-80
2023/06/17 05:39:22;;;;;;;3.40;2.90;;;;;;;30.43;32.88;99816.96;109904;1276;22789;-78
2023/06/17 05:41:50;;;;;;;4.50;2.60;;;;;;;30.49;32.50;99816.95;109771;1275;137535;-79
2023/06/17 05:44:18;;;;;;;2.80;2.10;;;;;;;30.56;32.86;99821.30;109762;1273;140296;-81
2023/06/17 05:46:48;;;;;;;2.40;2.30;;;;;;;30.60;32.66;99821.91;109941;1276;22312;-79
2023/06/17 05:49:16;;;;;;;7.30;2.90;;;;;;;30.62;32.85;99824.58;109837;1274;137322;-79
2023/06/17 05:51:44;;;;;;;2.60;2.50;;;;;;;30.71;32.71;99826.25;109858;1273;22897;-79
2023/06/17 05:54:13;;;;;;;2.60;2.40;;;;;;;30.85;32.59;99825.05;109770;1273;137329;-78
2023/06/17 05:56:40;;;;;;;5.50;2.50;;;;;;;31.00;32.57;99822.95;109763;1273;138786;-79
2023/06/17 05:59:08;;;;;;;3.60;2.90;;;;;;;31.24;33.18;99822.20;109844;1273;23022;-80
2023/06/17 06:01:38;;;;;;;3.70;3.20;;;;;;;31.47;32.57;99823.95;109706;1276;138455;-80
2023/06/17 06:04:05;;;;;;;3.00;2.80;;;;;;;31.57;31.72;99827.07;109811;1273;137771;-76
2023/06/17 06:06:32;;;;;;;4.10;2.30;;;;;;;31.56;32.41;99823.41;109869;1273;22393;-79
2023/06/17 06:09:01;;;;;;;4.30;3.10;;;;;;;31.67;32.16;99824.02;109748;1276;137862;-79
2023/06/17 06:11:28;;;;;;;2.70;2.30;;;;;;;31.78;31.33;99812.40;109865;1273;22129;-76
2023/06/17 06:13:56;;;;;;;2.80;2.60;;;;;;;31.87;31.36;99821.34;109738;1266;136920;-77
2023/06/17 06:16:23;;;;;;;2.50;2.30;;;;;;;31.75;31.45;99826.92;109753;1272;137963;-78
2023/06/17 06:18:50;;;;;;;3.30;2.40;;;;;;;31.45;30.63;99826.06;109912;1273;22340;-82
2023/06/17 06:21:18;;;;;;;3.30;2.30;;;;;;;31.26;31.34;99820.30;109759;1273;137531;-80
2023/06/17 06:23:45;;;;;;;2.10;2.00;;;;;;;31.20;31.60;99820.33;109878;1261;22439;-78
2023/06/17 06:26:13;;;;;;;3.40;2.50;;;;;;;31.22;31.88;99820.48;109933;1262;137125;-83
2023/06/17 06:28:41;;;;;;;2.30;2.20;;;;;;;31.35;30.67;99818.50;109856;1273;138772;-82
2023/06/17 06:31:08;;;;;;;3.70;2.50;;;;;;;31.46;31.02;99817.56;109902;1273;23061;-82
2023/06/17 06:33:36;;;;;;;3.20;2.10;;;;;;;31.48;30.00;99818.23;109799;1273;137041;-81
2023/06/17 06:36:05;;;;;;;2.80;2.10;;;;;;;31.42;30.46;99817.73;109782;1273;137940;-82
2023/06/17 06:38:32;;;;;;;2.30;1.70;;;;;;;31.45;31.09;99811.14;109818;1277;22227;-76
2023/06/17 06:41:01;;;;;;;2.60;1.90;;;;;;;31.53;30.82;99812.98;109745;1273;137542;-77
2023/06/17 06:43:29;;;;;;;2.70;2.50;;;;;;;31.60;29.56;99811.12;109958;1273;22312;-81
2023/06/17 06:46:01;;;;;;;2.20;2.00;;;;;;;31.59;29.57;99809.12;109834;1273;137099;-78
2023/06/17 06:48:28;;;;;;;2.70;2.10;;;;;;;31.66;28.88;99811.70;109850;1273;136307;-82
2023/06/17 06:50:58;;;;;;;1.40;1.30;;;;;;;31.77;28.64;99810.02;109959;1272;22341;-83
2023/06/17 06:53:25;;;;;;;2.40;1.70;;;;;;;31.83;29.07;99809.97;109792;1273;137958;-77
2023/06/17 06:55:54;;;;;;;1.50;1.40;;;;;;;31.88;27.67;99808.15;109909;1274;22310;-80
2023/06/17 06:58:22;;;;;;;2.20;2.00;;;;;;;31.78;27.52;99808.46;109816;1272;137052;-73
2023/06/17 07:00:49;;;;;;;4.80;2.40;;;;;;;31.69;27.25;99812.02;109788;1273;137459;-76
2023/06/17 07:03:18;;;;;;;2.70;1.40;;;;;;;31.71;26.94;99811.45;109899;1273;22314;-69
2023/06/17 07:05:45;;;;;;;1.50;1.40;;;;;;;31.71;27.24;99802.73;109808;1264;138923;-81
2023/06/17 07:08:13;;;;;;;1.90;1.80;;;;;;;31.85;27.42;99807.90;109817;1273;139451;-83
2023/06/17 07:10:41;;;;;;;1.90;1.80;;;;;;;31.75;27.79;99806.80;109995;1272;22123;-76
2023/06/17 07:13:09;;;;;;;2.60;1.70;;;;;;;31.67;27.05;99806.05;109760;1273;138294;-81
2023/06/17 07:15:37;;;;;;;3.60;1.50;;;;;;;31.65;27.62;99805.69;109955;1273;22342;-80
2023/06/17 07:18:05;;;;;;;6.10;1.70;;;;;;;31.71;26.41;99813.74;109801;1275;138507;-77
2023/06/17 07:20:32;;;;;;;3.20;1.50;;;;;;;31.65;26.37;99811.35;109832;1273;139362;-75
2023/06/17 07:23:00;;;;;;;3.40;1.80;;;;;;;31.67;26.09;99808.80;109972;1273;22999;-71
2023/06/17 07:25:27;;;;;;;3.30;1.70;;;;;;;31.66;26.02;99810.11;109818;1273;139937;-79
2023/06/17 07:27:59;;;;;;;1.50;1.50;;;;;;;31.53;26.34;99808.81;110020;1262;22314;-75
2023/06/17 07:30:27;;;;;;;1.80;1.70;;;;;;;31.32;26.42;99814.05;109811;1274;138290;-77
2023/06/17 07:32:56;;;;;;;1.90;1.80;;;;;;;31.04;26.84;99819.77;109834;1272;137788;-75
2023/06/17 07:35:23;;;;;;;3.90;2.10;;;;;;;30.88;27.28;99821.14;109822;1273;22410;-77
2023/06/17 07:37:51;;;;;;;1.60;1.50;;;;;;;30.85;27.00;99822.00;109780;1272;138059;-80
2023/06/17 07:40:19;;;;;;;1.50;1.40;;;;;;;30.84;26.73;99818.19;109683;1276;139846;-76
2023/06/17 07:42:47;;;;;;;1.40;1.40;;;;;;;30.63;26.99;99826.73;109975;1273;22428;-74
2023/06/17 07:45:15;;;;;;;2.80;1.70;;;;;;;30.40;26.79;99820.31;109818;1273;137331;-76
2023/06/17 07:47:42;;;;;;;2.50;2.30;;;;;;;30.24;27.09;99823.60;109936;1273;22974;-77
2023/06/17 07:50:09;;;;;;;2.40;1.40;;;;;;;29.97;27.90;99817.05;109849;1273;137840;-75
2023/06/17 07:52:37;;;;;;;1.90;1.80;;;;;;;29.68;28.18;99816.55;109883;1272;139678;-76
2023/06/17 07:55:07;;;;;;;3.50;2.10;;;;;;;29.49;27.98;99826.05;109980;1263;23066;-74
2023/06/17 07:57:35;;;;;;;1.90;1.80;;;;;;;29.36;27.98;99822.42;109842;1263;139345;-78
2023/06/17 08:00:09;;;;;;;1.70;1.60;;;;;;;29.29;28.30;99813.22;109952;1257;22281;-74
2023/06/17 08:02:43;;;;;;;1.70;1.60;;;;;;;29.26;28.95;99813.92;109987;1271;22496;-76
2023/06/17 08:05:11;;;;;;;2.70;1.80;;;;;;;29.20;28.94;99819.08;109885;1257;137531;-72
2023/06/17 08:07:38;;;;;;;3.20;2.80;;;;;;;29.14;28.45;99811.88;110207;1271;22122;-75
2023/06/17 08:10:06;;;;;;;2.20;2.10;;;;;;;29.09;28.80;99812.45;109985;1271;137812;-76
2023/06/17 08:12:36;;;;;;;1.80;1.70;;;;;;;29.07;28.88;99824.05;109899;1264;138342;-77
2023/06/17 08:15:04;;;;;;;1.80;1.70;;;;;;;29.03;28.66;99821.77;110073;1271;22342;-76
2023/06/17 08:17:31;;;;;;;1.90;1.70;;;;;;;28.96;29.20;99816.53;109893;1271;138624;-75
2023/06/17 08:19:59;;;;;;;4.60;2.40;;;;;;;28.95;29.61;99813.08;109980;1263;22207;-76
2023/06/17 08:22:27;;;;;;;2.00;1.90;;;;;;;28.98;29.28;99808.59;109966;1271;137422;-76
2023/06/17 08:24:54;;;;;;;1.90;1.80;;;;;;;28.94;29.23;99814.85;109949;1272;138180;-70
2023/06/17 08:27:21;;;;;;;3.50;1.60;;;;;;;28.86;28.53;99809.73;109974;1270;22347;-70
2023/06/17 08:29:49;;;;;;;3.50;1.60;;;;;;;28.75;28.90;99810.35;109904;1271;137761;-87
2023/06/17 08:32:16;;;;;;;1.80;1.70;;;;;;;28.70;29.20;99808.16;109892;1271;137606;-74
2023/06/17 08:34:44;;;;;;;4.00;1.70;;;;;;;28.72;29.56;99815.69;110051;1261;22328;-73
2023/06/17 08:37:11;;;;;;;2.00;1.80;;;;;;;28.89;29.45;99822.58;109962;1271;138240;-74
2023/06/17 08:39:40;;;;;;;2.30;1.90;;;;;;;28.66;29.81;99824.80;110013;1273;23040;-76
2023/06/17 08:42:08;;;;;;;1.80;1.80;;;;;;;28.53;30.15;99823.50;109803;1273;137435;-76
2023/06/17 08:44:41;;;;;;;2.20;2.10;;;;;;;28.39;29.87;99821.51;109854;1273;138724;-72
2023/06/17 08:47:13;;;;;;;2.20;2.10;;;;;;;28.23;30.03;99825.48;110012;1273;22843;-77
2023/06/17 08:49:43;;;;;;;2.00;1.80;;;;;;;28.24;30.58;99823.64;109872;1272;137556;-77
2023/06/17 08:52:13;;;;;;;2.50;2.30;;;;;;;28.28;30.93;99824.61;109851;1274;138535;-76
2023/06/17 08:54:41;;;;;;;2.40;2.00;;;;;;;28.32;31.14;99829.95;109979;1273;22670;-73
2023/06/17 08:57:12;;;;;;;2.00;1.90;;;;;;;28.37;31.35;99824.71;109877;1270;138954;-72
2023/06/17 08:59:40;;;;;;;4.30;2.70;;;;;;;28.39;31.28;99829.26;109992;1272;22155;-74
2023/06/17 09:02:10;;;;;;;4.70;1.90;;;;;;;28.33;31.32;99831.52;109852;1271;137843;-72
2023/06/17 09:04:39;;;;;;;2.10;1.90;;;;;;;28.25;31.49;99836.11;109898;1272;139269;-74
2023/06/17 09:07:09;;;;;;;2.20;2.10;;;;;;;28.16;31.56;99835.96;109970;1272;22322;-71
2023/06/17 09:09:37;;;;;;;2.70;2.50;;;;;;;28.10;31.54;99838.26;109878;1273;139229;-77
2023/06/17 09:12:05;;;;;;;3.80;2.40;;;;;;;28.03;31.75;99828.45;109865;1272;138339;-77
2023/06/17 09:14:34;;;;;;;5.30;2.40;;;;;;;27.95;31.88;99831.20;109843;1274;22371;-71
2023/06/17 09:17:02;;;;;;;3.10;2.60;;;;;;;27.90;31.63;99828.27;109801;1275;138513;-81
2023/06/17 09:19:31;;;;;;;2.40;2.30;;;;;;;27.88;31.72;99827.77;109966;1271;23015;-75
2023/06/17 09:22:06;;;;;;;2.40;2.30;;;;;;;27.88;31.65;99824.70;109831;1271;138640;-73
2023/06/17 09:24:34;;;;;;;2.30;2.20;;;;;;;27.86;31.39;99822.50;109903;1273;140070;-75
2023/06/17 09:27:02;;;;;;;1.80;1.70;;;;;;;27.83;31.78;99818.45;109944;1274;22138;-78
2023/06/17 09:29:29;;;;;;;2.70;2.60;;;;;;;27.85;31.94;99818.30;109851;1272;138747;-73
2023/06/17 09:31:58;;;;;;;2.30;2.10;;;;;;;27.91;31.91;99814.77;109923;1273;22351;-72
2023/06/17 09:34:26;;;;;;;3.60;2.50;;;;;;;27.96;31.54;99812.05;109858;1272;138790;-75
2023/06/17 09:37:00;;;;;;;2.60;2.40;;;;;;;27.95;31.68;99809.22;109696;1277;137896;-72
2023/06/17 09:39:32;;;;;;;5.10;2.10;;;;;;;27.95;31.77;99806.10;109953;1273;22366;-79
2023/06/17 09:42:12;;;;;;;2.80;2.60;;;;;;;27.87;31.79;99810.97;109851;1272;137649;-77
2023/06/17 09:44:40;;;;;;;3.30;3.10;;;;;;;27.80;31.13;99811.01;109839;1273;138232;-74
2023/06/17 09:47:08;;;;;;;3.40;2.40;;;;;;;27.73;31.04;99811.85;109993;1258;22344;-76
2023/06/17 09:49:36;;;;;;;2.70;2.50;;;;;;;27.64;30.86;99808.98;109868;1272;138456;-80
2023/06/17 09:52:11;;;;;;;2.40;2.30;;;;;;;27.55;31.05;99801.65;109872;1272;139327;-77
2023/06/17 09:54:41;;;;;;;2.70;2.40;;;;;;;27.48;30.87;99804.75;109968;1261;22363;-70
2023/06/17 09:57:09;;;;;;;2.70;2.50;;;;;;;27.42;30.92;99807.14;109860;1274;137316;-74
2023/06/17 09:59:37;;;;;;;2.50;2.40;;;;;;;27.39;30.49;99804.55;109975;1273;22361;-85
2023/06/17 10:02:05;;;;;;;2.10;1.70;;;;;;;27.38;30.38;99800.62;109874;1272;137521;-73
2023/06/17 10:04:32;;;;;;;4.50;2.50;;;;;;;27.41;30.64;99793.38;109833;1262;138812;-75
2023/06/17 10:07:06;;;;;;;2.10;2.00;;;;;;;27.44;30.73;99789.34;109986;1273;22249;-74
2023/06/17 10:09:35;;;;;;;2.30;2.10;;;;;;;27.52;30.87;99784.94;109852;1273;136326;-75
2023/06/17 10:12:04;;;;;;;2.70;2.20;;;;;;;27.62;31.26;99791.61;110043;1258;22340;-75
2023/06/17 10:14:33;;;;;;;3.30;2.50;;;;;;;27.65;30.85;99792.55;109979;1273;22560;-76
2023/06/17 10:17:03;;;;;;;3.10;2.80;;;;;;;27.66;30.90;99792.73;109777;1275;137459;-73
2023/06/17 10:19:32;;;;;;;2.60;2.30;;;;;;;27.64;31.24;99800.64;109967;1273;22287;-77
2023/06/17 10:22:04;;;;;;;2.90;2.70;;;;;;;27.60;31.60;99800.52;109832;1272;137518;-71
2023/06/17 10:24:32;;;;;;;2.80;2.60;;;;;;;27.56;31.86;99797.14;109797;1275;139803;-74
2023/06/17 10:27:06;;;;;;;2.90;2.70;;;;;;;27.56;31.91;99789.81;109981;1258;22359;-75
2023/06/17 10:29:34;;;;;;;2.70;2.50;;;;;;;27.58;32.10;99786.95;109752;1276;137425;-80
2023/06/17 10:32:25;;;;;;;2.60;2.20;;;;;;;27.61;32.34;99787.18;109763;1274;137695;-88
2023/06/17 10:35:06;;;;;;;4.70;2.60;;;;;;;27.71;32.39;99780.34;109897;1260;22353;-74
2023/06/17 10:37:50;;;;;;;2.50;2.40;;;;;;;27.78;32.47;99764.77;109858;1258;138176;-80
2023/06/17 10:40:19;;;;;;;5.20;3.30;;;;;;;27.96;32.16;99767.90;109819;1274;138413;-75
2023/06/17 10:43:03;;;;;;;3.00;2.80;;;;;;;28.10;31.62;99775.16;109887;1273;22342;-72
2023/06/17 10:45:32;;;;;;;3.30;2.60;;;;;;;28.23;31.18;99792.27;109793;1272;138710;-72
2023/06/17 10:48:30;;;;;;;3.60;2.30;;;;;;;28.19;31.00;99792.64;109871;1273;22371;-74
2023/06/17 10:51:01;;;;;;;2.40;2.30;;;;;;;28.15;31.02;99783.83;109957;1267;23105;-80
2023/06/17 10:53:36;;;;;;;2.70;2.30;;;;;;;28.07;31.18;99768.13;109821;1273;139274;-80
2023/06/17 10:56:05;;;;;;;3.10;2.90;;;;;;;28.17;31.22;99774.23;109808;1272;139240;-79
2023/06/17 10:58:37;;;;;;;2.60;2.50;;;;;;;28.18;31.27;99778.33;109836;1272;22343;-79
2023/06/17 11:01:11;;;;;;;2.40;2.30;;;;;;;28.11;31.44;99772.08;109887;1260;137447;-78
2023/06/17 11:03:39;;;;;;;3.50;2.60;;;;;;;28.08;31.74;99769.73;109921;1274;22339;-81
2023/06/17 11:06:09;;;;;;;2.70;2.10;;;;;;;28.15;31.62;99772.43;109818;1272;137320;-71
2023/06/17 11:08:37;;;;;;;3.60;2.60;;;;;;;28.24;31.20;99780.17;109737;1275;139490;-82
2023/06/17 11:11:08;;;;;;;5.50;2.60;;;;;;;28.28;30.87;99768.09;109964;1273;22338;-77
2023/06/17 11:13:44;;;;;;;3.80;2.40;;;;;;;28.32;30.97;99769.66;109779;1275;137631;-74
2023/06/17 11:16:12;;;;;;;3.10;2.80;;;;;;;28.39;30.78;99774.61;109849;1273;137906;-76
2023/06/17 11:18:44;;;;;;;4.00;2.50;;;;;;;28.38;30.67;99770.64;109868;1261;23106;-72
2023/06/17 11:21:12;;;;;;;2.70;2.50;;;;;;;28.31;30.83;99773.80;109767;1275;138566;-72
2023/06/17 11:23:42;;;;;;;2.20;2.10;;;;;;;28.25;30.74;99774.52;109931;1274;22257;-81
2023/06/17 11:26:11;;;;;;;8.20;2.80;;;;;;;28.17;30.75;99768.59;109752;1272;137267;-76
2023/06/17 11:28:39;;;;;;;2.40;2.30;;;;;;;28.10;31.03;99769.91;109821;1261;137939;-73